sensor_id;sensor_type;location;lat;lon;timestamp;temperature;humidity
15949;DHT22;14848;50.954;6.642;2023-09-12T00:00:12;19.90;99.90
15949;DHT22;14848;50.954;6.642;2023-09-12T00:02:38;19.90;99.90
15949;DHT22;14848;50.954;6.642;2023-09-12T00:05:04;19.80;99.90
15949;DHT22;14848;50.954;6.642;2023-09-12T00:07:30;19.80;99.90
15949;DHT22;14848;50.954;6.642;2023-09-12T00:09:56;19.80;99.90
15949;DHT22;14848;50.954;6.642;2023-09-12T00:12:23;19.80;99.90
15949;DHT22;14848;50.954;6.642;2023-09-12T00:14:50;19.80;99.90
15949;DHT22;14848;50.954;6.642;2023-09-12T00:17:16;19.90;99.90
15949;DHT22;14848;50.954;6.642;2023-09-12T00:19:43;19.90;99.90
15949;DHT22;14848;50.954;6.642;2023-09-12T00:22:08;19.90;99.90
15949;DHT22;14848;50.954;6.642;2023-09-12T00:24:34;19.90;99.90
15949;DHT22;14848;50.954;6.642;2023-09-12T00:27:00;19.90;99.90
15949;DHT22;14848;50.954;6.642;2023-09-12T00:29:25;19.80;99.90
15949;DHT22;14848;50.954;6.642;2023-09-12T00:31:51;19.80;99.90
15949;DHT22;14848;50.954;6.642;2023-09-12T00:34:17;19.50;99.90
15949;DHT22;14848;50.954;6.642;2023-09-12T00:36:43;19.70;99.90
15949;DHT22;14848;50.954;6.642;2023-09-12T00:39:09;19.70;99.90
15949;DHT22;14848;50.954;6.642;2023-09-12T00:41:35;19.70;99.90
15949;DHT22;14848;50.954;6.642;2023-09-12T00:44:00;19.70;99.90
15949;DHT22;14848;50.954;6.642;2023-09-12T00:46:27;19.70;99.90
15949;DHT22;14848;50.954;6.642;2023-09-12T00:48:53;19.60;99.90
15949;DHT22;14848;50.954;6.642;2023-09-12T00:51:20;19.60;99.90
15949;DHT22;14848;50.954;6.642;2023-09-12T00:53:47;19.50;99.90
15949;DHT22;14848;50.954;6.642;2023-09-12T00:56:13;19.40;99.90
15949;DHT22;14848;50.954;6.642;2023-09-12T00:58:39;19.40;99.90
15949;DHT22;14848;50.954;6.642;2023-09-12T01:01:05;19.30;99.90
15949;DHT22;14848;50.954;6.642;2023-09-12T01:03:31;19.20;99.90
15949;DHT22;14848;50.954;6.642;2023-09-12T01:05:59;19.20;99.90
15949;DHT22;14848;50.954;6.642;2023-09-12T01:15:35;19.20;99.90
15949;DHT22;14848;50.954;6.642;2023-09-12T01:18:01;19.10;99.90
15949;DHT22;14848;50.954;6.642;2023-09-12T01:20:32;19.10;99.90
15949;DHT22;14848;50.954;6.642;2023-09-12T01:28:17;19.10;99.90
15949;DHT22;14848;50.954;6.642;2023-09-12T01:30:45;19.00;99.90
15949;DHT22;14848;50.954;6.642;2023-09-12T01:33:13;18.90;99.90
15949;DHT22;14848;50.954;6.642;2023-09-12T01:35:38;18.90;99.90
15949;DHT22;14848;50.954;6.642;2023-09-12T01:38:04;18.90;99.90
15949;DHT22;14848;50.954;6.642;2023-09-12T01:40:47;18.90;99.90
15949;DHT22;14848;50.954;6.642;2023-09-12T01:43:16;18.80;99.90
15949;DHT22;14848;50.954;6.642;2023-09-12T01:45:44;18.80;99.90
15949;DHT22;14848;50.954;6.642;2023-09-12T01:48:11;18.80;99.90
15949;DHT22;14848;50.954;6.642;2023-09-12T01:50:37;18.80;99.90
15949;DHT22;14848;50.954;6.642;2023-09-12T01:53:03;18.70;99.90
15949;DHT22;14848;50.954;6.642;2023-09-12T01:55:29;18.70;99.90
15949;DHT22;14848;50.954;6.642;2023-09-12T01:57:56;18.70;99.90
15949;DHT22;14848;50.954;6.642;2023-09-12T02:00:23;18.80;99.90
15949;DHT22;14848;50.954;6.642;2023-09-12T02:02:49;18.80;99.90
15949;DHT22;14848;50.954;6.642;2023-09-12T02:05:17;18.70;99.90
15949;DHT22;14848;50.954;6.642;2023-09-12T02:07:45;18.70;99.90
15949;DHT22;14848;50.954;6.642;2023-09-12T02:10:11;18.60;99.90
15949;DHT22;14848;50.954;6.642;2023-09-12T02:12:37;18.70;99.90
15949;DHT22;14848;50.954;6.642;2023-09-12T02:15:04;18.60;99.90
15949;DHT22;14848;50.954;6.642;2023-09-12T02:17:30;18.70;99.90
15949;DHT22;14848;50.954;6.642;2023-09-12T02:19:56;18.70;99.90
15949;DHT22;14848;50.954;6.642;2023-09-12T02:22:21;18.60;99.90
15949;DHT22;14848;50.954;6.642;2023-09-12T02:24:47;18.60;99.90
15949;DHT22;14848;50.954;6.642;2023-09-12T02:27:13;18.80;99.90
15949;DHT22;14848;50.954;6.642;2023-09-12T02:29:39;18.60;99.90
15949;DHT22;14848;50.954;6.642;2023-09-12T02:32:05;18.60;99.90
15949;DHT22;14848;50.954;6.642;2023-09-12T02:39:23;18.70;99.90
15949;DHT22;14848;50.954;6.642;2023-09-12T02:41:49;18.70;99.90
15949;DHT22;14848;50.954;6.642;2023-09-12T02:44:14;18.70;99.90
15949;DHT22;14848;50.954;6.642;2023-09-12T02:46:40;18.80;99.90
15949;DHT22;14848;50.954;6.642;2023-09-12T02:49:06;18.80;99.90
15949;DHT22;14848;50.954;6.642;2023-09-12T02:51:32;18.80;99.90
15949;DHT22;14848;50.954;6.642;2023-09-12T02:53:57;18.80;99.90
15949;DHT22;14848;50.954;6.642;2023-09-12T02:56:23;18.90;99.90
15949;DHT22;14848;50.954;6.642;2023-09-12T02:58:49;18.90;99.90
15949;DHT22;14848;50.954;6.642;2023-09-12T03:01:19;18.90;99.90
15949;DHT22;14848;50.954;6.642;2023-09-12T03:03:48;18.90;99.90
15949;DHT22;14848;50.954;6.642;2023-09-12T03:06:14;19.00;99.90
15949;DHT22;14848;50.954;6.642;2023-09-12T03:08:41;19.00;99.90
15949;DHT22;14848;50.954;6.642;2023-09-12T03:11:07;19.10;99.90
15949;DHT22;14848;50.954;6.642;2023-09-12T03:13:33;18.90;99.90
15949;DHT22;14848;50.954;6.642;2023-09-12T03:16:00;18.90;99.90
15949;DHT22;14848;50.954;6.642;2023-09-12T03:18:26;18.80;99.90
15949;DHT22;14848;50.954;6.642;2023-09-12T03:20:51;18.70;99.90
15949;DHT22;14848;50.954;6.642;2023-09-12T03:23:18;18.70;99.90
15949;DHT22;14848;50.954;6.642;2023-09-12T03:25:44;18.80;99.90
15949;DHT22;14848;50.954;6.642;2023-09-12T03:28:10;18.90;99.90
15949;DHT22;14848;50.954;6.642;2023-09-12T03:30:37;18.90;99.90
15949;DHT22;14848;50.954;6.642;2023-09-12T03:33:04;19.00;99.90
15949;DHT22;14848;50.954;6.642;2023-09-12T03:35:31;19.10;99.90
15949;DHT22;14848;50.954;6.642;2023-09-12T03:37:57;19.20;99.90
15949;DHT22;14848;50.954;6.642;2023-09-12T03:45:15;18.90;99.90
15949;DHT22;14848;50.954;6.642;2023-09-12T03:47:41;18.90;99.90
15949;DHT22;14848;50.954;6.642;2023-09-12T03:50:08;18.80;99.90
15949;DHT22;14848;50.954;6.642;2023-09-12T03:57:26;18.90;99.90
15949;DHT22;14848;50.954;6.642;2023-09-12T03:59:52;18.90;99.90
15949;DHT22;14848;50.954;6.642;2023-09-12T04:02:18;18.80;99.90
15949;DHT22;14848;50.954;6.642;2023-09-12T04:04:44;18.80;99.90
15949;DHT22;14848;50.954;6.642;2023-09-12T04:07:09;18.80;99.90
15949;DHT22;14848;50.954;6.642;2023-09-12T04:09:35;18.80;99.90
15949;DHT22;14848;50.954;6.642;2023-09-12T04:12:01;18.90;99.90
15949;DHT22;14848;50.954;6.642;2023-09-12T04:14:27;18.90;99.90
15949;DHT22;14848;50.954;6.642;2023-09-12T04:16:52;18.90;99.90
15949;DHT22;14848;50.954;6.642;2023-09-12T04:19:18;18.80;99.90
15949;DHT22;14848;50.954;6.642;2023-09-12T04:21:44;18.90;99.90
15949;DHT22;14848;50.954;6.642;2023-09-12T04:24:09;18.90;99.90
15949;DHT22;14848;50.954;6.642;2023-09-12T04:26:35;19.00;99.90
15949;DHT22;14848;50.954;6.642;2023-09-12T04:29:00;19.00;99.90
15949;DHT22;14848;50.954;6.642;2023-09-12T04:31:26;19.00;99.90
15949;DHT22;14848;50.954;6.642;2023-09-12T04:33:52;18.90;99.90
15949;DHT22;14848;50.954;6.642;2023-09-12T04:36:18;18.80;99.90
15949;DHT22;14848;50.954;6.642;2023-09-12T04:38:44;18.80;99.90
15949;DHT22;14848;50.954;6.642;2023-09-12T04:41:12;18.70;99.90
15949;DHT22;14848;50.954;6.642;2023-09-12T04:43:40;18.70;99.90
15949;DHT22;14848;50.954;6.642;2023-09-12T04:46:06;18.70;99.90
15949;DHT22;14848;50.954;6.642;2023-09-12T04:48:32;18.70;99.90
15949;DHT22;14848;50.954;6.642;2023-09-12T04:50:58;18.60;99.90
15949;DHT22;14848;50.954;6.642;2023-09-12T04:53:23;18.50;99.90
15949;DHT22;14848;50.954;6.642;2023-09-12T04:55:52;18.50;99.90
15949;DHT22;14848;50.954;6.642;2023-09-12T04:58:18;18.50;99.90
15949;DHT22;14848;50.954;6.642;2023-09-12T05:00:45;18.60;99.90
15949;DHT22;14848;50.954;6.642;2023-09-12T05:03:11;18.60;99.90
15949;DHT22;14848;50.954;6.642;2023-09-12T05:05:36;18.60;99.90
15949;DHT22;14848;50.954;6.642;2023-09-12T05:08:02;18.60;99.90
15949;DHT22;14848;50.954;6.642;2023-09-12T05:10:29;18.60;99.90
15949;DHT22;14848;50.954;6.642;2023-09-12T05:12:55;18.70;99.90
15949;DHT22;14848;50.954;6.642;2023-09-12T05:15:20;18.70;99.90
15949;DHT22;14848;50.954;6.642;2023-09-12T05:17:46;18.70;99.90
15949;DHT22;14848;50.954;6.642;2023-09-12T05:20:12;18.80;99.90
15949;DHT22;14848;50.954;6.642;2023-09-12T05:22:37;18.70;99.90
15949;DHT22;14848;50.954;6.642;2023-09-12T05:25:03;18.80;99.90
15949;DHT22;14848;50.954;6.642;2023-09-12T05:27:29;18.80;99.90
15949;DHT22;14848;50.954;6.642;2023-09-12T05:29:54;18.80;99.90
15949;DHT22;14848;50.954;6.642;2023-09-12T05:32:20;18.90;99.90
15949;DHT22;14848;50.954;6.642;2023-09-12T05:34:46;18.80;99.90
15949;DHT22;14848;50.954;6.642;2023-09-12T05:37:15;18.90;99.90
15949;DHT22;14848;50.954;6.642;2023-09-12T05:39:40;19.00;99.90
15949;DHT22;14848;50.954;6.642;2023-09-12T05:42:07;19.00;99.90
15949;DHT22;14848;50.954;6.642;2023-09-12T05:44:32;19.00;99.90
15949;DHT22;14848;50.954;6.642;2023-09-12T05:46:58;19.00;99.90
15949;DHT22;14848;50.954;6.642;2023-09-12T05:49:24;19.00;99.90
15949;DHT22;14848;50.954;6.642;2023-09-12T05:51:49;19.10;99.90
15949;DHT22;14848;50.954;6.642;2023-09-12T05:54:15;19.20;99.90
15949;DHT22;14848;50.954;6.642;2023-09-12T05:56:41;19.20;99.90
15949;DHT22;14848;50.954;6.642;2023-09-12T05:59:07;19.20;99.90
15949;DHT22;14848;50.954;6.642;2023-09-12T06:01:32;19.20;99.90
15949;DHT22;14848;50.954;6.642;2023-09-12T06:03:58;19.20;99.90
15949;DHT22;14848;50.954;6.642;2023-09-12T06:06:23;19.10;99.90
15949;DHT22;14848;50.954;6.642;2023-09-12T06:08:49;19.20;99.90
15949;DHT22;14848;50.954;6.642;2023-09-12T06:11:15;19.20;99.90
15949;DHT22;14848;50.954;6.642;2023-09-12T06:13:40;19.20;99.90
15949;DHT22;14848;50.954;6.642;2023-09-12T06:16:06;19.20;99.90
15949;DHT22;14848;50.954;6.642;2023-09-12T06:18:32;19.20;99.90
15949;DHT22;14848;50.954;6.642;2023-09-12T06:21:00;19.40;99.90
15949;DHT22;14848;50.954;6.642;2023-09-12T06:23:30;19.40;99.90
15949;DHT22;14848;50.954;6.642;2023-09-12T06:25:56;19.40;99.90
15949;DHT22;14848;50.954;6.642;2023-09-12T06:28:29;19.50;99.90
15949;DHT22;14848;50.954;6.642;2023-09-12T06:30:55;19.60;99.90
15949;DHT22;14848;50.954;6.642;2023-09-12T06:33:22;19.60;99.90
15949;DHT22;14848;50.954;6.642;2023-09-12T06:35:49;19.70;99.90
15949;DHT22;14848;50.954;6.642;2023-09-12T06:38:15;19.90;99.90
15949;DHT22;14848;50.954;6.642;2023-09-12T06:40:42;20.00;99.90
15949;DHT22;14848;50.954;6.642;2023-09-12T06:43:08;20.00;99.90
15949;DHT22;14848;50.954;6.642;2023-09-12T06:45:34;20.10;99.90
15949;DHT22;14848;50.954;6.642;2023-09-12T06:48:03;20.10;99.90
15949;DHT22;14848;50.954;6.642;2023-09-12T06:50:29;20.20;99.90
15949;DHT22;14848;50.954;6.642;2023-09-12T06:52:55;20.30;99.90
15949;DHT22;14848;50.954;6.642;2023-09-12T06:55:20;20.50;99.90
15949;DHT22;14848;50.954;6.642;2023-09-12T06:57:46;20.50;99.90
15949;DHT22;14848;50.954;6.642;2023-09-12T07:00:12;20.70;99.90
15949;DHT22;14848;50.954;6.642;2023-09-12T07:02:38;20.90;99.90
15949;DHT22;14848;50.954;6.642;2023-09-12T07:05:04;21.10;99.90
15949;DHT22;14848;50.954;6.642;2023-09-12T07:07:30;21.40;99.90
15949;DHT22;14848;50.954;6.642;2023-09-12T07:09:57;21.60;99.90
15949;DHT22;14848;50.954;6.642;2023-09-12T07:12:22;21.80;99.90
15949;DHT22;14848;50.954;6.642;2023-09-12T07:14:48;22.10;99.90
15949;DHT22;14848;50.954;6.642;2023-09-12T07:17:16;22.10;99.90
15949;DHT22;14848;50.954;6.642;2023-09-12T07:19:43;22.20;99.90
15949;DHT22;14848;50.954;6.642;2023-09-12T07:22:08;22.20;99.90
15949;DHT22;14848;50.954;6.642;2023-09-12T07:24:34;22.20;99.90
15949;DHT22;14848;50.954;6.642;2023-09-12T07:27:00;22.30;99.90
15949;DHT22;14848;50.954;6.642;2023-09-12T07:29:26;22.30;99.90
15949;DHT22;14848;50.954;6.642;2023-09-12T07:31:53;22.30;99.90
15949;DHT22;14848;50.954;6.642;2023-09-12T07:34:20;22.50;99.90
15949;DHT22;14848;50.954;6.642;2023-09-12T07:36:46;22.50;99.90
15949;DHT22;14848;50.954;6.642;2023-09-12T07:39:11;22.60;99.90
15949;DHT22;14848;50.954;6.642;2023-09-12T07:41:38;22.70;99.90
15949;DHT22;14848;50.954;6.642;2023-09-12T07:44:04;22.90;99.90
15949;DHT22;14848;50.954;6.642;2023-09-12T07:46:30;23.00;99.90
15949;DHT22;14848;50.954;6.642;2023-09-12T07:48:56;23.20;99.90
15949;DHT22;14848;50.954;6.642;2023-09-12T07:51:22;23.00;99.90
15949;DHT22;14848;50.954;6.642;2023-09-12T07:53:48;23.20;99.90
15949;DHT22;14848;50.954;6.642;2023-09-12T07:56:14;23.20;99.90
15949;DHT22;14848;50.954;6.642;2023-09-12T07:58:40;23.10;99.90
15949;DHT22;14848;50.954;6.642;2023-09-12T08:01:07;23.20;99.90
15949;DHT22;14848;50.954;6.642;2023-09-12T08:03:34;23.20;99.90
15949;DHT22;14848;50.954;6.642;2023-09-12T08:06:00;23.20;99.90
15949;DHT22;14848;50.954;6.642;2023-09-12T08:08:26;23.20;99.90
15949;DHT22;14848;50.954;6.642;2023-09-12T08:10:51;23.20;99.90
15949;DHT22;14848;50.954;6.642;2023-09-12T08:13:17;23.30;99.90
15949;DHT22;14848;50.954;6.642;2023-09-12T08:15:43;23.30;99.90
15949;DHT22;14848;50.954;6.642;2023-09-12T08:18:09;23.40;99.90
15949;DHT22;14848;50.954;6.642;2023-09-12T08:20:35;23.40;99.90
15949;DHT22;14848;50.954;6.642;2023-09-12T08:23:01;23.40;99.90
15949;DHT22;14848;50.954;6.642;2023-09-12T08:25:27;23.30;99.90
15949;DHT22;14848;50.954;6.642;2023-09-12T08:27:53;23.20;99.90
15949;DHT22;14848;50.954;6.642;2023-09-12T08:30:18;23.10;99.90
15949;DHT22;14848;50.954;6.642;2023-09-12T08:32:44;23.10;99.90
15949;DHT22;14848;50.954;6.642;2023-09-12T08:35:10;23.20;99.90
15949;DHT22;14848;50.954;6.642;2023-09-12T08:37:38;23.20;99.90
15949;DHT22;14848;50.954;6.642;2023-09-12T08:40:05;23.10;99.90
15949;DHT22;14848;50.954;6.642;2023-09-12T08:42:40;23.00;99.90
15949;DHT22;14848;50.954;6.642;2023-09-12T08:45:12;23.00;99.90
15949;DHT22;14848;50.954;6.642;2023-09-12T08:47:43;22.90;99.90
15949;DHT22;14848;50.954;6.642;2023-09-12T08:50:13;23.00;99.90
15949;DHT22;14848;50.954;6.642;2023-09-12T08:52:44;23.10;99.90
15949;DHT22;14848;50.954;6.642;2023-09-12T08:55:11;23.30;99.90
15949;DHT22;14848;50.954;6.642;2023-09-12T08:57:39;23.30;99.90
15949;DHT22;14848;50.954;6.642;2023-09-12T09:00:06;23.30;99.90
15949;DHT22;14848;50.954;6.642;2023-09-12T09:02:38;23.30;99.90
15949;DHT22;14848;50.954;6.642;2023-09-12T09:05:04;23.30;99.90
15949;DHT22;14848;50.954;6.642;2023-09-12T09:07:41;23.20;99.90
15949;DHT22;14848;50.954;6.642;2023-09-12T09:10:14;23.20;99.90
15949;DHT22;14848;50.954;6.642;2023-09-12T09:12:42;23.30;99.90
15949;DHT22;14848;50.954;6.642;2023-09-12T09:15:40;23.40;99.90
15949;DHT22;14848;50.954;6.642;2023-09-12T09:18:09;23.50;99.90
15949;DHT22;14848;50.954;6.642;2023-09-12T09:20:37;23.60;99.90
15949;DHT22;14848;50.954;6.642;2023-09-12T09:23:05;23.70;99.90
15949;DHT22;14848;50.954;6.642;2023-09-12T09:25:35;23.70;99.90
15949;DHT22;14848;50.954;6.642;2023-09-12T09:28:16;23.90;99.90
15949;DHT22;14848;50.954;6.642;2023-09-12T09:30:44;23.60;99.90
15949;DHT22;14848;50.954;6.642;2023-09-12T09:33:11;23.70;99.90
15949;DHT22;14848;50.954;6.642;2023-09-12T09:35:37;23.80;99.90
15949;DHT22;14848;50.954;6.642;2023-09-12T09:38:05;23.80;99.90
15949;DHT22;14848;50.954;6.642;2023-09-12T09:40:33;23.70;99.90
15949;DHT22;14848;50.954;6.642;2023-09-12T09:42:59;23.60;99.90
15949;DHT22;14848;50.954;6.642;2023-09-12T09:45:26;23.60;99.90
15949;DHT22;14848;50.954;6.642;2023-09-12T09:47:52;23.60;99.90
15949;DHT22;14848;50.954;6.642;2023-09-12T09:50:17;23.70;99.90
15949;DHT22;14848;50.954;6.642;2023-09-12T09:52:43;23.90;99.90
15949;DHT22;14848;50.954;6.642;2023-09-12T09:55:15;23.80;99.90
15949;DHT22;14848;50.954;6.642;2023-09-12T09:57:41;23.80;99.90
15949;DHT22;14848;50.954;6.642;2023-09-12T10:00:07;24.00;99.90
15949;DHT22;14848;50.954;6.642;2023-09-12T10:02:38;24.20;99.90
15949;DHT22;14848;50.954;6.642;2023-09-12T10:05:05;24.30;99.90
15949;DHT22;14848;50.954;6.642;2023-09-12T10:07:37;24.30;99.90
15949;DHT22;14848;50.954;6.642;2023-09-12T10:10:04;24.20;99.90
15949;DHT22;14848;50.954;6.642;2023-09-12T10:12:35;23.60;99.90
15949;DHT22;14848;50.954;6.642;2023-09-12T10:15:01;24.20;99.90
15949;DHT22;14848;50.954;6.642;2023-09-12T10:17:32;24.10;99.90
15949;DHT22;14848;50.954;6.642;2023-09-12T10:20:03;24.30;99.90
15949;DHT22;14848;50.954;6.642;2023-09-12T10:22:39;24.40;99.90
15949;DHT22;14848;50.954;6.642;2023-09-12T10:25:06;24.50;99.90
15949;DHT22;14848;50.954;6.642;2023-09-12T10:27:33;24.50;99.90
15949;DHT22;14848;50.954;6.642;2023-09-12T10:29:58;24.60;99.90
15949;DHT22;14848;50.954;6.642;2023-09-12T10:32:25;24.50;99.90
15949;DHT22;14848;50.954;6.642;2023-09-12T10:34:58;24.60;99.90
15949;DHT22;14848;50.954;6.642;2023-09-12T10:37:26;24.70;99.90
15949;DHT22;14848;50.954;6.642;2023-09-12T10:39:55;24.80;99.90
15949;DHT22;14848;50.954;6.642;2023-09-12T10:42:22;24.80;99.90
15949;DHT22;14848;50.954;6.642;2023-09-12T10:44:50;24.90;99.90
15949;DHT22;14848;50.954;6.642;2023-09-12T10:47:17;25.00;99.90
15949;DHT22;14848;50.954;6.642;2023-09-12T10:49:44;25.10;99.90
15949;DHT22;14848;50.954;6.642;2023-09-12T10:52:09;25.00;99.90
15949;DHT22;14848;50.954;6.642;2023-09-12T10:54:39;25.00;99.90
15949;DHT22;14848;50.954;6.642;2023-09-12T10:57:10;24.90;99.90
15949;DHT22;14848;50.954;6.642;2023-09-12T11:02:40;25.20;99.90
15949;DHT22;14848;50.954;6.642;2023-09-12T11:05:07;25.20;99.90
15949;DHT22;14848;50.954;6.642;2023-09-12T11:07:59;25.10;99.90
15949;DHT22;14848;50.954;6.642;2023-09-12T11:10:26;25.00;99.90
15949;DHT22;14848;50.954;6.642;2023-09-12T11:12:53;25.00;99.90
15949;DHT22;14848;50.954;6.642;2023-09-12T11:15:21;25.00;99.90
15949;DHT22;14848;50.954;6.642;2023-09-12T11:17:48;25.10;99.90
15949;DHT22;14848;50.954;6.642;2023-09-12T11:20:15;25.20;99.90
15949;DHT22;14848;50.954;6.642;2023-09-12T11:22:46;25.40;99.90
15949;DHT22;14848;50.954;6.642;2023-09-12T11:25:26;25.40;99.90
15949;DHT22;14848;50.954;6.642;2023-09-12T11:30:18;25.60;99.90
15949;DHT22;14848;50.954;6.642;2023-09-12T11:32:46;25.60;99.90
15949;DHT22;14848;50.954;6.642;2023-09-12T11:35:14;25.60;99.90
15949;DHT22;14848;50.954;6.642;2023-09-12T11:37:51;25.60;99.90
15949;DHT22;14848;50.954;6.642;2023-09-12T11:42:57;25.80;99.90
15949;DHT22;14848;50.954;6.642;2023-09-12T11:45:23;25.80;99.90
15949;DHT22;14848;50.954;6.642;2023-09-12T11:47:49;25.80;99.90
15949;DHT22;14848;50.954;6.642;2023-09-12T11:50:34;25.90;99.90
15949;DHT22;14848;50.954;6.642;2023-09-12T11:53:11;25.90;99.90
15949;DHT22;14848;50.954;6.642;2023-09-12T11:55:42;25.90;99.90
15949;DHT22;14848;50.954;6.642;2023-09-12T11:58:08;25.80;99.90
15949;DHT22;14848;50.954;6.642;2023-09-12T12:00:34;26.00;99.90
15949;DHT22;14848;50.954;6.642;2023-09-12T12:03:00;26.10;99.90
15949;DHT22;14848;50.954;6.642;2023-09-12T12:05:25;26.40;99.90
15949;DHT22;14848;50.954;6.642;2023-09-12T12:07:51;26.40;99.90
15949;DHT22;14848;50.954;6.642;2023-09-12T12:10:17;26.40;99.90
15949;DHT22;14848;50.954;6.642;2023-09-12T12:12:53;26.40;99.90
15949;DHT22;14848;50.954;6.642;2023-09-12T12:15:18;26.30;99.90
15949;DHT22;14848;50.954;6.642;2023-09-12T12:27:40;26.10;99.90
15949;DHT22;14848;50.954;6.642;2023-09-12T12:30:11;26.40;99.90
15949;DHT22;14848;50.954;6.642;2023-09-12T12:32:41;26.30;99.90
15949;DHT22;14848;50.954;6.642;2023-09-12T12:35:08;26.20;99.90
15949;DHT22;14848;50.954;6.642;2023-09-12T12:37:36;26.10;99.90
15949;DHT22;14848;50.954;6.642;2023-09-12T12:40:02;26.20;99.90
15949;DHT22;14848;50.954;6.642;2023-09-12T12:42:39;26.20;99.90
15949;DHT22;14848;50.954;6.642;2023-09-12T12:45:15;26.20;99.90
15949;DHT22;14848;50.954;6.642;2023-09-12T12:47:42;26.40;99.90
15949;DHT22;14848;50.954;6.642;2023-09-12T12:50:17;26.30;99.90
15949;DHT22;14848;50.954;6.642;2023-09-12T12:52:47;26.20;99.90
15949;DHT22;14848;50.954;6.642;2023-09-12T12:55:14;26.30;99.90
15949;DHT22;14848;50.954;6.642;2023-09-12T12:57:41;26.50;99.90
15949;DHT22;14848;50.954;6.642;2023-09-12T13:00:14;26.60;99.90
15949;DHT22;14848;50.954;6.642;2023-09-12T13:02:41;26.80;99.90
15949;DHT22;14848;50.954;6.642;2023-09-12T13:05:26;26.80;99.90
15949;DHT22;14848;50.954;6.642;2023-09-12T13:07:52;26.90;99.90
15949;DHT22;14848;50.954;6.642;2023-09-12T13:10:19;27.00;99.90
15949;DHT22;14848;50.954;6.642;2023-09-12T13:12:44;27.00;99.90
15949;DHT22;14848;50.954;6.642;2023-09-12T13:15:12;26.90;99.90
15949;DHT22;14848;50.954;6.642;2023-09-12T13:17:38;27.00;99.90
15949;DHT22;14848;50.954;6.642;2023-09-12T13:20:04;27.00;99.90
15949;DHT22;14848;50.954;6.642;2023-09-12T13:22:30;26.70;99.90
15949;DHT22;14848;50.954;6.642;2023-09-12T13:24:56;26.50;99.90
15949;DHT22;14848;50.954;6.642;2023-09-12T13:27:21;26.40;99.90
15949;DHT22;14848;50.954;6.642;2023-09-12T13:29:47;26.40;99.90
15949;DHT22;14848;50.954;6.642;2023-09-12T13:32:13;26.40;99.90
15949;DHT22;14848;50.954;6.642;2023-09-12T13:34:41;26.60;99.90
15949;DHT22;14848;50.954;6.642;2023-09-12T13:37:06;26.80;99.90
15949;DHT22;14848;50.954;6.642;2023-09-12T13:39:32;27.00;99.90
15949;DHT22;14848;50.954;6.642;2023-09-12T13:41:57;27.00;99.90
15949;DHT22;14848;50.954;6.642;2023-09-12T13:44:25;26.80;99.90
15949;DHT22;14848;50.954;6.642;2023-09-12T13:46:51;26.50;99.90
15949;DHT22;14848;50.954;6.642;2023-09-12T13:49:16;26.50;99.90
15949;DHT22;14848;50.954;6.642;2023-09-12T13:51:42;26.50;99.90
15949;DHT22;14848;50.954;6.642;2023-09-12T13:54:08;26.60;99.90
15949;DHT22;14848;50.954;6.642;2023-09-12T13:56:43;27.10;99.90
15949;DHT22;14848;50.954;6.642;2023-09-12T13:59:09;26.70;99.90
15949;DHT22;14848;50.954;6.642;2023-09-12T14:01:34;26.80;99.90
15949;DHT22;14848;50.954;6.642;2023-09-12T14:04:00;26.70;99.90
15949;DHT22;14848;50.954;6.642;2023-09-12T14:06:26;26.80;99.90
15949;DHT22;14848;50.954;6.642;2023-09-12T14:08:53;26.70;99.90
15949;DHT22;14848;50.954;6.642;2023-09-12T14:11:18;26.70;99.90
15949;DHT22;14848;50.954;6.642;2023-09-12T14:13:44;26.60;99.90
15949;DHT22;14848;50.954;6.642;2023-09-12T14:16:09;26.50;99.90
15949;DHT22;14848;50.954;6.642;2023-09-12T14:18:35;26.60;99.90
15949;DHT22;14848;50.954;6.642;2023-09-12T14:21:02;26.50;99.90
15949;DHT22;14848;50.954;6.642;2023-09-12T14:23:28;26.50;99.90
15949;DHT22;14848;50.954;6.642;2023-09-12T14:25:53;26.30;99.90
15949;DHT22;14848;50.954;6.642;2023-09-12T14:28:19;26.10;99.90
15949;DHT22;14848;50.954;6.642;2023-09-12T14:30:45;26.10;99.90
15949;DHT22;14848;50.954;6.642;2023-09-12T14:33:11;26.10;99.90
15949;DHT22;14848;50.954;6.642;2023-09-12T14:35:37;26.10;99.90
15949;DHT22;14848;50.954;6.642;2023-09-12T14:38:03;26.20;99.90
15949;DHT22;14848;50.954;6.642;2023-09-12T14:40:30;26.30;99.90
15949;DHT22;14848;50.954;6.642;2023-09-12T14:42:55;26.30;99.90
15949;DHT22;14848;50.954;6.642;2023-09-12T14:45:21;26.30;99.90
15949;DHT22;14848;50.954;6.642;2023-09-12T14:47:47;26.40;99.90
15949;DHT22;14848;50.954;6.642;2023-09-12T14:50:13;26.40;99.90
15949;DHT22;14848;50.954;6.642;2023-09-12T14:52:39;26.50;99.90
15949;DHT22;14848;50.954;6.642;2023-09-12T14:55:05;26.50;99.90
15949;DHT22;14848;50.954;6.642;2023-09-12T14:57:34;26.50;99.90
15949;DHT22;14848;50.954;6.642;2023-09-12T14:59:59;26.50;99.90
15949;DHT22;14848;50.954;6.642;2023-09-12T15:02:26;26.40;99.90
15949;DHT22;14848;50.954;6.642;2023-09-12T15:05:03;26.50;99.90
15949;DHT22;14848;50.954;6.642;2023-09-12T15:07:29;26.50;99.90
15949;DHT22;14848;50.954;6.642;2023-09-12T15:09:56;26.40;99.90
15949;DHT22;14848;50.954;6.642;2023-09-12T15:12:22;26.30;99.90
15949;DHT22;14848;50.954;6.642;2023-09-12T15:14:47;26.30;99.90
15949;DHT22;14848;50.954;6.642;2023-09-12T15:17:14;26.40;99.90
15949;DHT22;14848;50.954;6.642;2023-09-12T15:19:40;26.40;99.90
15949;DHT22;14848;50.954;6.642;2023-09-12T15:22:06;26.30;99.90
15949;DHT22;14848;50.954;6.642;2023-09-12T15:24:31;26.50;99.90
15949;DHT22;14848;50.954;6.642;2023-09-12T15:26:57;26.60;99.90
15949;DHT22;14848;50.954;6.642;2023-09-12T15:29:22;26.80;99.90
15949;DHT22;14848;50.954;6.642;2023-09-12T15:31:48;26.90;99.90
15949;DHT22;14848;50.954;6.642;2023-09-12T15:34:14;27.00;99.90
15949;DHT22;14848;50.954;6.642;2023-09-12T15:36:45;27.00;99.90
15949;DHT22;14848;50.954;6.642;2023-09-12T15:39:11;26.90;99.90
15949;DHT22;14848;50.954;6.642;2023-09-12T15:41:38;26.60;99.90
15949;DHT22;14848;50.954;6.642;2023-09-12T15:44:03;26.70;99.90
15949;DHT22;14848;50.954;6.642;2023-09-12T15:46:30;26.80;99.90
15949;DHT22;14848;50.954;6.642;2023-09-12T15:48:55;26.60;99.90
15949;DHT22;14848;50.954;6.642;2023-09-12T15:51:21;26.40;99.90
15949;DHT22;14848;50.954;6.642;2023-09-12T15:53:47;26.40;99.90
15949;DHT22;14848;50.954;6.642;2023-09-12T15:56:13;26.40;99.90
15949;DHT22;14848;50.954;6.642;2023-09-12T15:58:39;26.30;99.90
15949;DHT22;14848;50.954;6.642;2023-09-12T16:01:05;26.10;99.90
15949;DHT22;14848;50.954;6.642;2023-09-12T16:03:33;26.00;99.90
15949;DHT22;14848;50.954;6.642;2023-09-12T16:05:59;25.90;99.90
15949;DHT22;14848;50.954;6.642;2023-09-12T16:08:25;25.90;99.90
15949;DHT22;14848;50.954;6.642;2023-09-12T16:10:52;25.80;99.90
15949;DHT22;14848;50.954;6.642;2023-09-12T16:13:18;25.80;99.90